Time,TemperatureF,DewpointF,PressureIn,WindDirection,WindDirectionDegrees,WindSpeedMPH,WindSpeedGustMPH,Humidity,HourlyPrecipIn,Conditions,Clouds,dailyrainin,SoftwareType,DateUTC
2013-09-06 00:12:00,78.0,68.0,-100.00,North,-999,-999.0,-999.0,71,0.00,,,0.00,,2013-09-06 05:12:00,
2013-09-06 00:23:00,78.0,68.0,-100.00,North,-999,-999.0,-999.0,71,0.00,,,0.00,,2013-09-06 05:23:00,
2013-09-06 00:42:00,77.0,69.0,-100.00,North,-999,-999.0,-999.0,74,0.00,,,0.00,,2013-09-06 05:42:00,
2013-09-06 00:52:00,77.0,69.0,-100.00,North,-999,-999.0,-999.0,74,0.00,,,0.00,,2013-09-06 05:52:00,
2013-09-06 01:22:00,76.0,70.0,-100.00,North,-999,-999.0,-999.0,79,-99.99,,,0.00,,2013-09-06 06:22:00,
2013-09-06 01:53:00,76.0,70.0,-100.00,North,-999,-999.0,-999.0,81,0.00,,,0.00,,2013-09-06 06:53:00,
2013-09-06 02:01:00,76.0,70.0,-100.00,North,-999,-999.0,-999.0,81,0.00,,,0.00,,2013-09-06 07:01:00,
2013-09-06 02:23:00,75.0,70.0,-100.00,North,-999,-999.0,-999.0,83,0.00,,,0.00,,2013-09-06 07:23:00,
2013-09-06 02:52:00,75.0,70.0,-100.00,North,-999,-999.0,-999.0,85,0.00,,,0.00,,2013-09-06 07:52:00,
2013-09-06 03:03:00,75.0,70.0,-100.00,North,-999,-999.0,-999.0,85,0.00,,,0.00,,2013-09-06 08:03:00,
2013-09-06 03:22:00,74.0,70.0,-100.00,North,-999,-999.0,-999.0,87,0.00,,,0.00,,2013-09-06 08:22:00,
2013-09-06 03:42:00,74.0,71.0,-100.00,North,-999,-999.0,-999.0,88,0.00,,,0.00,,2013-09-06 08:42:00,
2013-09-06 03:52:00,74.0,71.0,-100.00,North,-999,-999.0,-999.0,88,0.00,,,0.00,,2013-09-06 08:52:00,
2013-09-06 04:22:00,74.0,71.0,-100.00,North,-999,-999.0,-999.0,90,0.00,,,0.00,,2013-09-06 09:22:00,
2013-09-06 04:53:00,73.0,71.0,-100.00,North,-999,-999.0,-999.0,93,-99.99,,,0.00,,2013-09-06 09:53:00,
2013-09-06 05:23:00,73.0,71.0,-100.00,North,-999,-999.0,-999.0,94,0.00,,,0.00,,2013-09-06 10:23:00,
2013-09-06 05:53:00,72.0,71.0,-100.00,North,-999,-999.0,-999.0,98,0.00,,,0.00,,2013-09-06 10:53:00,
2013-09-06 06:22:00,72.0,72.0,-100.00,North,-999,-999.0,-999.0,100,0.00,,,0.00,,2013-09-06 11:22:00,
2013-09-06 06:52:00,72.0,71.0,-100.00,North,-999,-999.0,-999.0,97,0.00,,,-99.99,,2013-09-06 11:52:00,
2013-09-06 07:12:00,72.0,72.0,-100.00,North,-999,-999.0,-999.0,98,0.00,,,0.00,,2013-09-06 12:12:00,
2013-09-06 07:21:00,72.0,72.0,-100.00,North,-999,-999.0,-999.0,98,0.00,,,0.00,,2013-09-06 12:21:00,
2013-09-06 07:52:00,74.0,71.0,-100.00,North,-999,-999.0,-999.0,92,0.00,,,0.00,,2013-09-06 12:52:00,
2013-09-06 08:22:00,75.0,72.0,-100.00,North,-999,-999.0,-999.0,91,-99.99,,,0.00,,2013-09-06 13:22:00,
2013-09-06 08:52:00,76.0,73.0,-100.00,North,-999,-999.0,-999.0,88,0.00,,,-99.99,,2013-09-06 13:52:00,
2013-09-06 09:22:00,78.0,72.0,-100.00,North,-999,-999.0,-999.0,81,0.00,,,0.00,,2013-09-06 14:22:00,
2013-09-06 09:52:00,80.0,71.0,-100.00,North,-999,-999.0,-999.0,75,0.00,,,0.00,,2013-09-06 14:52:00,
2013-09-06 10:01:00,80.0,71.0,-100.00,North,-999,-999.0,-999.0,75,0.00,,,0.00,,2013-09-06 15:01:00,
2013-09-06 10:22:00,81.0,72.0,-100.00,North,-999,-999.0,-999.0,72,0.00,,,-99.99,,2013-09-06 15:22:00,
2013-09-06 10:53:00,83.0,69.0,-100.00,North,-999,-999.0,-999.0,63,0.00,,,0.00,,2013-09-06 15:53:00,
2013-09-06 11:13:00,85.0,68.0,-100.00,North,-999,-999.0,-999.0,56,-99.99,,,0.00,,2013-09-06 16:13:00,
2013-09-06 11:24:00,85.0,68.0,-100.00,North,-999,-999.0,-999.0,56,-99.99,,,0.00,,2013-09-06 16:24:00,
2013-09-06 11:53:00,87.0,64.0,-100.00,North,-999,-999.0,-999.0,46,0.00,,,-99.99,,2013-09-06 16:53:00,
2013-09-06 12:03:00,87.0,64.0,-100.00,North,-999,-999.0,-999.0,46,0.00,,,-99.99,,2013-09-06 17:03:00,
2013-09-06 12:13:00,87.0,64.0,-100.00,North,-999,-999.0,-999.0,46,0.00,,,-99.99,,2013-09-06 17:13:00,
2013-09-06 12:24:00,87.0,64.0,-100.00,North,-999,-999.0,-999.0,46,0.00,,,-99.99,,2013-09-06 17:24:00,
2013-09-06 12:53:00,88.0,64.0,-100.00,North,-999,-999.0,-999.0,44,0.00,,,0.00,,2013-09-06 17:53:00,
2013-09-06 13:22:00,88.0,64.0,-100.00,North,-999,-999.0,-999.0,44,-99.99,,,0.00,,2013-09-06 18:22:00,
2013-09-06 13:52:00,90.0,62.0,-100.00,North,-999,-999.0,-999.0,39,0.00,,,0.00,,2013-09-06 18:52:00,
2013-09-06 14:22:00,91.0,61.0,-100.00,North,-999,-999.0,-999.0,37,0.00,,,-99.99,,2013-09-06 19:22:00,
2013-09-06 14:43:00,91.0,61.0,-100.00,North,-999,-999.0,-999.0,36,0.00,,,0.00,,2013-09-06 19:43:00,
2013-09-06 14:52:00,91.0,61.0,-100.00,North,-999,-999.0,-999.0,36,0.00,,,0.00,,2013-09-06 19:52:00,
2013-09-06 15:23:00,92.0,60.0,-100.00,North,-999,-999.0,-999.0,35,0.00,,,-99.99,,2013-09-06 20:23:00,
2013-09-06 15:52:00,93.0,61.0,-100.00,North,-999,-999.0,-999.0,35,0.00,,,0.00,,2013-09-06 20:52:00,
2013-09-06 16:01:00,93.0,61.0,-100.00,North,-999,-999.0,-999.0,35,0.00,,,0.00,,2013-09-06 21:01:00,
2013-09-06 16:22:00,90.0,60.0,-100.00,North,-999,-999.0,-999.0,36,0.00,,,0.00,,2013-09-06 21:22:00,
2013-09-06 16:54:00,90.0,59.0,-100.00,North,-999,-999.0,-999.0,36,0.00,,,0.00,,2013-09-06 21:54:00,
2013-09-06 17:04:00,90.0,59.0,-100.00,North,-999,-999.0,-999.0,36,0.00,,,0.00,,2013-09-06 22:04:00,
2013-09-06 17:13:00,90.0,59.0,-100.00,North,-999,-999.0,-999.0,36,0.00,,,0.00,,2013-09-06 22:13:00,
2013-09-06 17:23:00,90.0,59.0,-100.00,North,-999,-999.0,-999.0,36,0.00,,,0.00,,2013-09-06 22:23:00,
2013-09-06 17:54:00,92.0,59.0,-100.00,North,-999,-999.0,-999.0,34,0.00,,,-99.99,,2013-09-06 22:54:00,
2013-09-06 18:23:00,92.0,58.0,-100.00,North,-999,-999.0,-999.0,33,-99.99,,,0.00,,2013-09-06 23:23:00,
2013-09-06 18:52:00,91.0,60.0,-100.00,North,-999,-999.0,-999.0,36,0.00,,,0.00,,2013-09-06 23:52:00,
2013-09-06 19:22:00,90.0,59.0,-100.00,North,-999,-999.0,-999.0,36,0.00,,,0.00,,2013-09-07 00:22:00,
2013-09-06 19:52:00,89.0,58.0,-100.00,North,-999,-999.0,-999.0,35,0.00,,,0.00,,2013-09-07 00:52:00,
2013-09-06 20:21:00,87.0,57.0,-100.00,North,-999,-999.0,-999.0,37,0.00,,,0.00,,2013-09-07 01:21:00,
2013-09-06 20:32:00,87.0,57.0,-100.00,North,-999,-999.0,-999.0,37,0.00,,,0.00,,2013-09-07 01:32:00,
2013-09-06 20:53:00,86.0,58.0,-100.00,North,-999,-999.0,-999.0,39,0.00,,,0.00,,2013-09-07 01:53:00,
2013-09-06 21:12:00,85.0,58.0,-100.00,North,-999,-999.0,-999.0,40,0.00,,,0.00,,2013-09-07 02:12:00,
2013-09-06 21:23:00,85.0,58.0,-100.00,North,-999,-999.0,-999.0,40,0.00,,,0.00,,2013-09-07 02:23:00,
2013-09-06 21:52:00,83.0,60.0,-100.00,North,-999,-999.0,-999.0,47,0.00,,,0.00,,2013-09-07 02:52:00,
2013-09-06 22:23:00,81.0,62.0,-100.00,North,-999,-999.0,-999.0,52,-99.99,,,0.00,,2013-09-07 03:23:00,
2013-09-06 22:55:00,80.0,66.0,-100.00,North,-999,-999.0,-999.0,61,0.00,,,0.00,,2013-09-07 03:55:00,
2013-09-06 23:23:00,80.0,68.0,-100.00,North,-999,-999.0,-999.0,67,0.00,,,0.00,,2013-09-07 04:23:00,
2013-09-06 23:54:00,79.0,69.0,-100.00,North,-999,-999.0,-999.0,71,0.00,,,0.00,,2013-09-07 04:54:00,